Time;durP1;ratioP1;P1;durP2;ratioP2;P2;SDS_P1;SDS_P2;PMS_P1;PMS_P2;Temp;Humidity;BMP_temperature;BMP_pressure;BME280_temperature;BME280_humidity;BME280_pressure;Samples;Min_cycle;Max_cycle;Signal;HPM_P1;HPM_P2
2023/01/19 00:01:23;;;;;;;8.88;5.22;;;3.00;99.90;;;;;;5132608;27;20086;-92
2023/01/19 00:03:49;;;;;;;8.10;3.83;;;3.00;99.90;;;;;;5115552;27;20051;-91
2023/01/19 00:06:14;;;;;;;12.73;4.97;;;3.00;99.90;;;;;;5114116;27;20039;-91
2023/01/19 00:08:43;;;;;;;7.85;3.80;;;3.00;99.90;;;;;;5115475;27;20054;-91
2023/01/19 00:11:09;;;;;;;23.20;4.65;;;3.00;99.90;;;;;;5114760;27;20122;-91
2023/01/19 00:13:35;;;;;;;8.73;4.68;;;2.90;99.90;;;;;;5132252;27;20046;-92
2023/01/19 00:16:01;;;;;;;8.52;4.53;;;2.90;99.90;;;;;;5132944;27;20144;-91
2023/01/19 00:18:27;;;;;;;9.57;4.60;;;2.90;99.90;;;;;;5115601;27;20110;-91
2023/01/19 00:20:53;;;;;;;8.68;4.70;;;2.90;99.90;;;;;;5114640;27;20042;-93
2023/01/19 00:23:19;;;;;;;10.00;4.30;;;2.90;99.90;;;;;;5115247;27;20034;-92
2023/01/19 00:25:46;;;;;;;9.85;5.40;;;2.90;99.90;;;;;;5114048;27;20035;-91
2023/01/19 00:28:14;;;;;;;10.40;4.65;;;2.90;99.90;;;;;;5114909;27;20070;-92
2023/01/19 00:30:41;;;;;;;7.57;3.65;;;2.90;99.90;;;;;;5111374;27;20553;-91
2023/01/19 00:33:07;;;;;;;8.02;3.80;;;2.80;99.90;;;;;;5114086;27;20083;-92
2023/01/19 00:35:34;;;;;;;9.13;3.75;;;2.80;99.90;;;;;;5115522;27;20066;-92
2023/01/19 00:38:02;;;;;;;8.48;4.53;;;2.80;99.90;;;;;;5114584;27;20027;-92
2023/01/19 00:40:27;;;;;;;7.85;3.65;;;2.80;99.90;;;;;;5114709;27;20050;-92
2023/01/19 00:42:53;;;;;;;8.95;3.97;;;2.80;99.90;;;;;;5131284;27;20039;-91
2023/01/19 00:45:22;;;;;;;5.18;2.40;;;2.70;99.90;;;;;;5131808;27;20131;-92
2023/01/19 00:47:53;;;;;;;6.47;3.03;;;2.70;99.90;;;;;;5114687;27;20112;-92
2023/01/19 00:50:19;;;;;;;5.88;2.38;;;2.70;99.90;;;;;;5130258;27;20052;-91
2023/01/19 00:52:45;;;;;;;6.70;3.30;;;2.60;99.90;;;;;;5114101;27;20250;-91
2023/01/19 00:55:13;;;;;;;6.25;2.58;;;2.60;99.90;;;;;;5114832;27;20543;-91
2023/01/19 00:57:40;;;;;;;7.25;3.38;;;2.60;99.90;;;;;;5130797;27;20077;-91
2023/01/19 01:00:12;;;;;;;6.03;2.72;;;2.60;99.90;;;;;;5114409;27;20033;-91
2023/01/19 01:02:38;;;;;;;7.80;3.77;;;2.60;99.90;;;;;;5113607;27;20035;-91
2023/01/19 01:05:05;;;;;;;6.80;3.13;;;2.60;99.90;;;;;;5113852;27;20064;-91
2023/01/19 01:07:39;;;;;;;6.50;3.25;;;2.60;99.90;;;;;;5114086;27;20039;-91
2023/01/19 01:10:08;;;;;;;7.00;3.60;;;2.60;99.90;;;;;;5113686;27;20042;-92
2023/01/19 01:12:33;;;;;;;6.30;3.47;;;2.60;99.90;;;;;;5130160;27;20088;-91
2023/01/19 01:14:59;;;;;;;8.90;4.82;;;2.60;99.90;;;;;;5114368;27;20039;-91
2023/01/19 01:17:24;;;;;;;7.68;3.95;;;2.60;99.90;;;;;;5112651;28;20035;-91
2023/01/19 01:19:51;;;;;;;10.35;5.72;;;2.50;99.90;;;;;;5113822;27;20473;-91
2023/01/19 01:22:17;;;;;;;10.43;6.60;;;2.50;99.90;;;;;;5112925;27;20050;-91
2023/01/19 01:24:43;;;;;;;8.20;4.50;;;2.50;99.90;;;;;;5130338;27;20035;-92
2023/01/19 01:27:08;;;;;;;10.52;6.50;;;2.50;99.90;;;;;;5131046;27;20127;-91
2023/01/19 01:29:34;;;;;;;11.68;6.60;;;2.40;99.90;;;;;;5112949;27;20039;-92
2023/01/19 01:32:00;;;;;;;10.15;6.65;;;2.40;99.90;;;;;;5131217;27;20035;-92
2023/01/19 01:34:27;;;;;;;10.05;5.90;;;2.50;99.90;;;;;;5113253;27;20122;-91
2023/01/19 01:36:53;;;;;;;8.07;4.90;;;2.60;99.90;;;;;;5094160;28;20066;-92
2023/01/19 01:39:19;;;;;;;9.10;5.10;;;2.60;99.90;;;;;;5127593;27;20219;-93
2023/01/19 01:41:45;;;;;;;9.18;5.45;;;2.60;99.90;;;;;;5110911;27;20042;-93
2023/01/19 01:44:48;;;;;;;12.65;7.70;;;2.50;99.90;;;;;;5114300;27;20039;-92
2023/01/19 01:47:43;;;;;;;8.68;4.93;;;2.50;99.90;;;;;;5112651;27;20415;-91
2023/01/19 01:50:16;;;;;;;9.65;5.75;;;2.60;99.90;;;;;;5113597;27;20108;-92
2023/01/19 01:52:48;;;;;;;10.63;5.38;;;2.60;99.90;;;;;;5112063;27;20035;-91
2023/01/19 01:55:14;;;;;;;12.15;7.60;;;2.60;99.90;;;;;;5130871;27;20042;-91
2023/01/19 01:57:46;;;;;;;11.25;5.63;;;2.70;99.90;;;;;;5113306;28;20084;-92
2023/01/19 02:00:13;;;;;;;10.77;6.15;;;2.70;99.90;;;;;;5113628;28;20032;-92
2023/01/19 02:02:52;;;;;;;9.75;6.10;;;2.40;99.90;;;;;;5112736;28;20511;-92
2023/01/19 02:05:32;;;;;;;12.38;7.53;;;2.40;99.90;;;;;;5111793;28;20381;-91
2023/01/19 02:13:47;;;;;;;12.52;7.80;;;2.50;99.90;;;;;;5129666;28;20043;-91
2023/01/19 02:16:14;;;;;;;14.73;8.15;;;2.50;99.90;;;;;;5130118;28;20122;-91
2023/01/19 02:18:41;;;;;;;13.70;8.77;;;2.50;99.90;;;;;;5111359;28;20038;-90
2023/01/19 02:21:13;;;;;;;12.30;7.72;;;2.50;99.90;;;;;;5129407;28;20676;-92
2023/01/19 02:23:43;;;;;;;8.20;5.03;;;2.50;99.90;;;;;;5112890;28;20043;-90
2023/01/19 02:26:11;;;;;;;8.63;5.15;;;2.60;99.90;;;;;;5113409;28;20588;-91
2023/01/19 02:28:42;;;;;;;9.98;6.18;;;2.60;99.90;;;;;;5112896;27;20192;-92
2023/01/19 02:31:07;;;;;;;12.45;8.32;;;2.60;99.90;;;;;;5115553;27;20535;-92
2023/01/19 02:33:33;;;;;;;11.63;6.85;;;2.60;99.90;;;;;;5134244;27;20080;-92
2023/01/19 02:35:59;;;;;;;13.10;6.28;;;2.50;99.90;;;;;;5116554;27;20480;-91
2023/01/19 02:38:27;;;;;;;8.98;5.03;;;2.60;99.90;;;;;;5134884;27;20032;-92
2023/01/19 02:40:56;;;;;;;10.60;5.75;;;2.60;99.90;;;;;;5133496;27;20168;-91
2023/01/19 02:43:23;;;;;;;12.80;6.93;;;2.60;99.90;;;;;;5097276;28;20036;-92
2023/01/19 02:45:49;;;;;;;14.32;8.80;;;2.60;99.90;;;;;;5101468;27;20035;-92
2023/01/19 02:48:17;;;;;;;12.10;6.95;;;2.60;99.90;;;;;;5133411;27;20043;-92
2023/01/19 02:50:48;;;;;;;11.70;7.20;;;2.70;99.90;;;;;;5116793;27;20070;-93
2023/01/19 02:53:16;;;;;;;13.48;9.00;;;2.70;99.90;;;;;;5115372;27;20504;-92
2023/01/19 02:55:51;;;;;;;10.90;6.43;;;2.70;99.90;;;;;;5116983;27;20088;-92
2023/01/19 02:58:26;;;;;;;15.35;10.05;;;2.70;99.90;;;;;;5134079;27;20110;-90
2023/01/19 03:01:07;;;;;;;18.02;10.90;;;2.70;99.90;;;;;;5133953;27;20134;-91
2023/01/19 03:04:08;;;;;;;16.75;10.20;;;2.70;99.90;;;;;;5111882;27;20099;-92
2023/01/19 03:07:06;;;;;;;11.05;6.90;;;2.70;99.90;;;;;;5116034;27;20046;-91
2023/01/19 03:09:54;;;;;;;14.38;8.60;;;2.70;99.90;;;;;;5109062;27;20517;-91
2023/01/19 03:12:29;;;;;;;14.30;8.93;;;2.70;99.90;;;;;;5115587;27;20495;-91
2023/01/19 03:15:00;;;;;;;11.40;7.05;;;2.70;99.90;;;;;;5116327;27;20081;-91
2023/01/19 03:17:29;;;;;;;17.27;8.50;;;2.70;99.90;;;;;;5116286;27;20039;-91
2023/01/19 03:19:57;;;;;;;16.02;9.23;;;2.70;99.90;;;;;;5133812;27;20046;-91
2023/01/19 03:22:28;;;;;;;14.63;9.18;;;2.70;99.90;;;;;;5115900;27;20500;-91
2023/01/19 03:24:58;;;;;;;12.98;8.50;;;2.70;99.90;;;;;;5132893;27;20552;-92
2023/01/19 03:27:39;;;;;;;12.73;7.70;;;2.70;99.90;;;;;;5132910;27;20046;-93
2023/01/19 03:30:13;;;;;;;19.25;10.40;;;2.70;99.90;;;;;;5116011;27;20412;-92
2023/01/19 03:32:50;;;;;;;14.90;9.38;;;2.70;99.90;;;;;;5115541;27;20050;-93
2023/01/19 03:35:19;;;;;;;13.38;8.95;;;2.60;99.90;;;;;;5116554;27;20039;-93
2023/01/19 03:37:47;;;;;;;14.52;8.40;;;2.70;99.90;;;;;;5115182;27;20110;-93
2023/01/19 03:40:13;;;;;;;11.85;6.88;;;2.60;99.90;;;;;;5116420;27;20035;-93
2023/01/19 03:42:41;;;;;;;12.77;6.05;;;2.80;99.90;;;;;;5113562;27;20126;-92
2023/01/19 03:45:08;;;;;;;14.85;9.27;;;2.70;99.90;;;;;;5116367;27;20051;-93
2023/01/19 03:47:34;;;;;;;11.23;6.90;;;2.70;99.90;;;;;;5115518;27;20039;-94
2023/01/19 03:50:05;;;;;;;13.80;8.30;;;2.70;99.90;;;;;;5108375;28;20612;-93
2023/01/19 03:52:35;;;;;;;11.63;7.28;;;2.70;99.90;;;;;;5094817;28;20048;-92
2023/01/19 03:55:01;;;;;;;10.20;6.00;;;2.70;99.90;;;;;;5102185;27;20035;-93
2023/01/19 03:57:27;;;;;;;12.65;7.82;;;2.50;99.90;;;;;;5097273;28;20485;-93
2023/01/19 03:59:52;;;;;;;14.40;8.05;;;2.70;99.90;;;;;;5129922;27;20034;-93
2023/01/19 04:02:18;;;;;;;12.45;7.05;;;2.60;99.90;;;;;;5114537;27;20039;-93
2023/01/19 04:04:44;;;;;;;11.85;7.18;;;2.80;99.90;;;;;;5115561;27;20039;-92
2023/01/19 04:07:10;;;;;;;11.80;6.68;;;2.60;99.90;;;;;;5131865;27;20096;-92
2023/01/19 04:09:36;;;;;;;11.60;6.57;;;2.90;99.90;;;;;;5115303;27;20381;-93
2023/01/19 04:12:02;;;;;;;10.63;6.78;;;2.50;99.90;;;;;;5108197;28;20479;-93
2023/01/19 04:14:28;;;;;;;11.40;6.25;;;2.60;99.90;;;;;;5094955;28;20032;-93
2023/01/19 04:16:54;;;;;;;10.02;5.35;;;2.50;99.90;;;;;;5116843;27;20117;-93
2023/01/19 04:19:19;;;;;;;10.45;6.18;;;2.60;99.90;;;;;;5115680;27;20493;-94
2023/01/19 04:21:48;;;;;;;10.27;5.13;;;2.50;99.90;;;;;;5111615;28;20203;-92
2023/01/19 04:24:14;;;;;;;9.27;5.28;;;2.50;99.90;;;;;;5125475;27;20069;-93
2023/01/19 04:26:39;;;;;;;10.43;6.30;;;2.50;99.90;;;;;;5114809;27;20073;-93
2023/01/19 04:29:05;;;;;;;8.18;4.20;;;2.40;99.90;;;;;;5113550;27;20137;-93
2023/01/19 04:31:30;;;;;;;8.85;4.20;;;2.50;99.90;;;;;;5131801;27;20039;-92
2023/01/19 04:33:56;;;;;;;10.68;5.30;;;2.50;99.90;;;;;;5114142;27;20110;-92
2023/01/19 04:36:22;;;;;;;7.85;3.70;;;2.40;99.90;;;;;;5114665;27;20042;-92
2023/01/19 04:38:47;;;;;;;8.25;3.88;;;2.40;99.90;;;;;;5107658;28;20039;-92
2023/01/19 04:41:13;;;;;;;9.35;4.78;;;2.50;99.90;;;;;;5102239;27;20528;-93
2023/01/19 04:43:39;;;;;;;10.48;5.97;;;2.40;99.90;;;;;;5113437;27;20038;-93
2023/01/19 04:46:05;;;;;;;12.27;6.32;;;2.70;99.90;;;;;;5114298;27;20084;-93
2023/01/19 04:48:31;;;;;;;10.90;5.97;;;2.40;99.90;;;;;;5130609;27;20039;-92
2023/01/19 04:50:57;;;;;;;11.30;6.72;;;2.50;99.90;;;;;;5114867;27;20045;-93
2023/01/19 04:53:23;;;;;;;12.90;6.63;;;2.60;99.90;;;;;;5112808;27;20083;-93
2023/01/19 04:55:54;;;;;;;13.40;7.47;;;2.40;99.90;;;;;;5114542;27;20084;-93
2023/01/19 04:58:20;;;;;;;12.93;7.30;;;2.50;99.90;;;;;;5131453;27;20027;-93
2023/01/19 05:00:46;;;;;;;11.32;6.00;;;2.50;99.90;;;;;;5113983;27;20600;-92
2023/01/19 05:03:11;;;;;;;10.70;6.32;;;2.60;99.90;;;;;;5113865;27;20400;-92
2023/01/19 05:05:37;;;;;;;12.00;6.47;;;2.40;99.90;;;;;;5130454;27;20482;-92
2023/01/19 05:08:03;;;;;;;12.63;6.25;;;2.80;99.90;;;;;;5113648;27;20039;-92
2023/01/19 05:10:29;;;;;;;13.65;7.40;;;2.50;99.90;;;;;;5113411;27;20041;-92
2023/01/19 05:12:54;;;;;;;13.80;7.50;;;2.40;99.90;;;;;;5112414;27;20039;-92
2023/01/19 05:15:20;;;;;;;13.82;7.75;;;2.50;99.90;;;;;;5114090;27;20123;-93
2023/01/19 05:17:46;;;;;;;14.75;7.20;;;2.60;99.90;;;;;;5113335;27;20066;-93
2023/01/19 05:20:13;;;;;;;13.75;7.63;;;2.60;99.90;;;;;;5114555;27;20479;-92
2023/01/19 05:22:38;;;;;;;13.65;6.70;;;2.50;99.90;;;;;;5113304;27;20407;-91
2023/01/19 05:25:07;;;;;;;13.27;7.05;;;2.60;99.90;;;;;;5130128;27;20042;-92
2023/01/19 05:27:33;;;;;;;13.50;6.93;;;2.60;99.90;;;;;;5113830;27;20087;-91
2023/01/19 05:29:58;;;;;;;13.48;6.80;;;2.60;99.90;;;;;;5130028;27;20121;-92
2023/01/19 05:32:24;;;;;;;11.93;6.55;;;2.60;99.90;;;;;;5130943;27;20035;-93
2023/01/19 05:34:50;;;;;;;13.45;6.72;;;2.80;99.90;;;;;;5113272;27;20031;-93
2023/01/19 05:37:15;;;;;;;12.60;6.20;;;2.80;99.90;;;;;;5098531;28;20533;-92
2023/01/19 05:39:41;;;;;;;12.00;5.43;;;2.70;99.90;;;;;;5093593;28;20520;-93
2023/01/19 05:42:07;;;;;;;13.85;5.97;;;2.90;99.90;;;;;;5117425;27;20420;-91
2023/01/19 05:44:32;;;;;;;10.60;5.68;;;2.80;99.90;;;;;;5126669;27;20057;-93
2023/01/19 05:46:58;;;;;;;15.93;7.15;;;2.80;99.90;;;;;;5126683;27;20093;-92
2023/01/19 05:49:24;;;;;;;13.93;5.97;;;2.90;99.90;;;;;;5113416;27;20042;-93
2023/01/19 05:51:49;;;;;;;12.50;6.00;;;3.00;99.90;;;;;;5130492;27;20023;-93
2023/01/19 05:54:15;;;;;;;12.32;6.30;;;3.00;99.90;;;;;;5130134;27;20630;-93
2023/01/19 05:56:41;;;;;;;11.30;4.35;;;3.10;99.90;;;;;;5113699;27;20023;-92
2023/01/19 05:59:07;;;;;;;10.10;5.05;;;3.00;99.90;;;;;;5112956;28;20081;-91
2023/01/19 06:01:34;;;;;;;13.93;5.45;;;3.20;99.90;;;;;;5095670;28;20099;-92
2023/01/19 06:04:00;;;;;;;12.18;4.50;;;3.40;99.90;;;;;;5112498;28;20039;-92
2023/01/19 06:06:25;;;;;;;11.40;4.20;;;3.20;99.90;;;;;;5112859;28;20107;-93
2023/01/19 06:08:51;;;;;;;9.93;3.65;;;3.10;99.90;;;;;;5113169;28;20066;-93
2023/01/19 06:11:17;;;;;;;9.80;2.65;;;3.30;99.90;;;;;;5112389;28;20069;-92
2023/01/19 06:13:43;;;;;;;9.23;2.47;;;3.20;99.90;;;;;;5127781;28;20100;-92
2023/01/19 06:16:10;;;;;;;10.60;2.42;;;3.20;99.90;;;;;;5111647;28;20039;-92
2023/01/19 06:18:36;;;;;;;10.27;2.03;;;3.30;99.90;;;;;;5111391;28;20038;-93
2023/01/19 06:21:03;;;;;;;7.38;1.90;;;3.30;99.90;;;;;;5112232;28;20039;-93
2023/01/19 06:23:30;;;;;;;7.35;1.73;;;3.40;99.90;;;;;;5112727;28;20125;-93
2023/01/19 06:25:56;;;;;;;6.57;1.58;;;3.30;99.90;;;;;;5112853;28;20520;-93
2023/01/19 06:28:22;;;;;;;7.00;1.52;;;3.40;99.90;;;;;;5112710;28;20130;-92
2023/01/19 06:30:49;;;;;;;4.57;1.30;;;3.40;99.90;;;;;;5112740;28;20404;-92
2023/01/19 06:33:16;;;;;;;9.63;1.88;;;3.30;99.90;;;;;;5129441;28;20449;-92
2023/01/19 06:35:49;;;;;;;8.07;1.27;;;3.40;99.90;;;;;;5113132;28;20046;-92
2023/01/19 06:38:17;;;;;;;5.40;1.48;;;3.50;99.90;;;;;;5102572;28;20035;-92
2023/01/19 06:40:43;;;;;;;8.02;1.35;;;3.30;99.90;;;;;;5112688;28;20042;-92
2023/01/19 06:43:09;;;;;;;9.18;1.10;;;3.50;99.90;;;;;;5111851;28;20039;-93
2023/01/19 06:45:37;;;;;;;4.40;1.17;;;3.40;99.90;;;;;;5112749;28;20396;-92
2023/01/19 06:48:03;;;;;;;5.03;1.00;;;3.50;99.90;;;;;;5130319;28;20053;-92
2023/01/19 06:50:28;;;;;;;20.45;1.70;;;3.40;99.90;;;;;;5111929;28;20035;-92
2023/01/19 06:52:54;;;;;;;3.33;0.70;;;3.20;99.90;;;;;;5112165;28;20118;-92
2023/01/19 06:55:20;;;;;;;5.53;0.85;;;3.40;99.90;;;;;;5129332;28;20035;-92
2023/01/19 06:57:45;;;;;;;3.08;0.73;;;3.30;99.90;;;;;;5106276;28;20078;-92
2023/01/19 07:00:13;;;;;;;7.93;0.88;;;3.60;99.90;;;;;;5092925;28;20090;-93
2023/01/19 07:02:43;;;;;;;6.35;0.77;;;3.40;99.90;;;;;;5110770;28;20043;-92
2023/01/19 07:05:13;;;;;;;3.60;0.90;;;3.50;99.90;;;;;;5112185;28;20067;-92
2023/01/19 07:07:39;;;;;;;10.73;1.23;;;3.80;99.90;;;;;;5112870;28;20061;-92
2023/01/19 07:10:10;;;;;;;3.92;0.57;;;3.50;99.90;;;;;;5128422;28;20122;-92
2023/01/19 07:12:37;;;;;;;3.90;0.85;;;3.40;99.90;;;;;;5129627;28;20443;-93
2023/01/19 07:15:03;;;;;;;4.28;1.02;;;3.40;99.90;;;;;;5112143;27;20047;-92
2023/01/19 07:17:29;;;;;;;3.92;0.88;;;3.50;99.90;;;;;;5115578;27;20039;-93
2023/01/19 07:19:54;;;;;;;5.63;2.45;;;3.50;99.90;;;;;;5116773;27;20031;-92
2023/01/19 07:22:20;;;;;;;5.20;0.82;;;3.40;99.90;;;;;;5115290;27;20304;-92
2023/01/19 07:24:46;;;;;;;4.50;0.82;;;3.40;99.90;;;;;;5115854;27;20039;-92
2023/01/19 07:27:11;;;;;;;5.38;1.10;;;3.40;99.90;;;;;;5116461;27;20075;-92
2023/01/19 07:29:38;;;;;;;2.35;0.80;;;3.50;99.90;;;;;;5131808;27;20552;-92
2023/01/19 07:32:03;;;;;;;7.03;1.40;;;3.50;99.90;;;;;;5115072;27;20129;-93
2023/01/19 07:34:30;;;;;;;7.95;1.20;;;3.50;99.90;;;;;;5132953;27;20118;-92
2023/01/19 07:36:55;;;;;;;8.18;1.55;;;3.30;99.90;;;;;;5114918;27;20069;-93
2023/01/19 07:39:21;;;;;;;9.10;1.48;;;3.60;99.90;;;;;;5116678;27;20127;-93
2023/01/19 07:41:49;;;;;;;10.70;1.38;;;3.50;99.90;;;;;;5132463;27;20043;-93
2023/01/19 07:44:15;;;;;;;7.47;1.30;;;3.50;99.90;;;;;;5113774;27;20039;-93
2023/01/19 07:46:42;;;;;;;4.88;0.98;;;3.50;99.90;;;;;;5094282;28;20043;-92
2023/01/19 07:49:08;;;;;;;14.18;1.48;;;3.50;99.90;;;;;;5101688;27;20080;-92
2023/01/19 07:51:34;;;;;;;10.05;1.17;;;3.50;99.90;;;;;;5114478;27;20031;-93
2023/01/19 07:54:00;;;;;;;7.43;1.40;;;3.60;99.90;;;;;;5104848;27;20104;-92
2023/01/19 07:56:28;;;;;;;4.50;1.63;;;3.60;99.90;;;;;;5115232;27;20042;-92
2023/01/19 07:58:54;;;;;;;8.80;1.35;;;3.50;99.90;;;;;;5115324;27;20039;-93
2023/01/19 08:01:20;;;;;;;11.38;2.42;;;3.70;99.90;;;;;;5113343;27;20038;-92
2023/01/19 08:03:47;;;;;;;6.40;1.35;;;3.70;99.90;;;;;;5114579;27;20638;-93
2023/01/19 08:06:20;;;;;;;10.15;1.33;;;3.80;99.90;;;;;;5113950;27;20080;-93
2023/01/19 08:08:46;;;;;;;11.55;1.55;;;3.70;99.90;;;;;;5114728;27;20118;-93
2023/01/19 08:11:11;;;;;;;8.02;1.10;;;3.80;99.90;;;;;;5113682;27;20126;-93
2023/01/19 08:13:37;;;;;;;13.38;1.50;;;3.80;99.90;;;;;;5113585;27;20407;-93
2023/01/19 08:16:03;;;;;;;9.00;2.45;;;3.70;99.90;;;;;;5131546;27;20717;-92
2023/01/19 08:18:29;;;;;;;11.45;2.38;;;3.80;99.90;;;;;;5113919;27;20476;-93
2023/01/19 08:20:57;;;;;;;9.20;1.40;;;3.60;99.90;;;;;;5114872;27;20065;-92
2023/01/19 08:23:23;;;;;;;17.08;1.83;;;3.90;99.90;;;;;;5114487;27;20095;-92
2023/01/19 08:25:49;;;;;;;8.60;1.73;;;3.70;99.90;;;;;;5113950;27;20591;-91
2023/01/19 08:28:15;;;;;;;11.93;1.40;;;3.70;99.90;;;;;;5114459;27;20050;-92
2023/01/19 08:30:52;;;;;;;12.27;1.55;;;3.80;99.90;;;;;;5113666;27;20035;-92
2023/01/19 08:33:18;;;;;;;13.20;2.05;;;3.80;99.90;;;;;;5114000;27;20039;-93
2023/01/19 08:35:47;;;;;;;8.43;1.70;;;3.80;99.90;;;;;;5113517;27;20038;-93
2023/01/19 08:38:13;;;;;;;9.18;1.20;;;3.80;99.90;;;;;;5114711;27;20088;-93
2023/01/19 08:40:40;;;;;;;9.60;1.40;;;3.70;99.90;;;;;;5114511;27;20037;-92
2023/01/19 08:43:16;;;;;;;7.72;1.35;;;3.60;99.90;;;;;;5112967;27;20039;-93
2023/01/19 08:45:49;;;;;;;14.30;3.10;;;3.70;99.90;;;;;;5130998;27;20035;-93
2023/01/19 08:48:16;;;;;;;;;;;3.70;99.90;;;;;;5131088;27;20039;-93
2023/01/19 08:50:44;;;;;;;11.10;1.55;;;3.80;99.90;;;;;;5113486;27;19915;-93
2023/01/19 08:53:09;;;;;;;6.78;1.27;;;3.70;99.90;;;;;;5112565;27;20050;-92
2023/01/19 08:55:36;;;;;;;11.27;2.45;;;3.80;99.90;;;;;;5113218;27;20039;-92
2023/01/19 08:58:03;;;;;;;11.15;1.60;;;3.80;99.90;;;;;;5113989;27;20043;-93
2023/01/19 09:00:30;;;;;;;7.50;1.60;;;3.80;99.90;;;;;;5129915;27;20035;-93
2023/01/19 09:02:56;;;;;;;10.82;1.80;;;3.90;99.90;;;;;;5112838;27;20050;-92
2023/01/19 09:05:22;;;;;;;11.73;1.88;;;4.10;99.90;;;;;;5113584;27;20035;-93
2023/01/19 09:07:48;;;;;;;10.02;1.50;;;4.30;99.90;;;;;;5113337;27;20050;-93
2023/01/19 09:10:15;;;;;;;9.93;1.48;;;4.10;99.90;;;;;;5113324;27;20087;-93
2023/01/19 09:12:42;;;;;;;6.47;1.13;;;4.10;99.90;;;;;;5112697;27;20035;-93
2023/01/19 09:15:09;;;;;;;7.93;1.33;;;4.20;99.90;;;;;;5112100;27;20043;-93
2023/01/19 09:17:35;;;;;;;13.02;1.52;;;4.20;99.90;;;;;;5130530;27;20039;-93
2023/01/19 09:20:03;;;;;;;10.65;1.77;;;4.30;99.90;;;;;;5129749;27;20034;-92
2023/01/19 09:22:28;;;;;;;10.60;1.42;;;4.60;99.90;;;;;;5111956;27;20134;-93
2023/01/19 09:24:54;;;;;;;9.15;1.40;;;4.40;99.90;;;;;;5112327;27;20455;-93
2023/01/19 09:27:20;;;;;;;10.02;1.70;;;4.40;99.90;;;;;;5120084;27;20039;-93
2023/01/19 09:29:51;;;;;;;10.60;1.35;;;4.40;99.90;;;;;;5091398;28;20027;-93
2023/01/19 09:32:18;;;;;;;7.95;1.30;;;4.20;99.90;;;;;;5093234;27;20348;-93
2023/01/19 09:34:44;;;;;;;10.20;1.23;;;4.30;99.90;;;;;;5090955;28;20140;-93
2023/01/19 09:37:10;;;;;;;14.60;1.90;;;4.40;99.90;;;;;;5107897;28;20500;-93
2023/01/19 09:39:35;;;;;;;7.30;1.80;;;4.30;99.90;;;;;;5092491;28;20039;-93
2023/01/19 09:42:21;;;;;;;7.95;1.27;;;4.40;99.90;;;;;;5092889;28;20462;-93
2023/01/19 09:44:49;;;;;;;12.43;1.85;;;4.40;99.90;;;;;;5089240;28;20100;-92
2023/01/19 09:47:18;;;;;;;9.80;1.63;;;4.40;99.90;;;;;;5090799;28;20139;-93
2023/01/19 09:49:50;;;;;;;9.35;1.65;;;4.60;99.90;;;;;;5105192;28;20039;-92
2023/01/19 09:52:17;;;;;;;9.52;1.95;;;4.50;99.90;;;;;;5124212;27;20049;-92
2023/01/19 09:54:52;;;;;;;9.07;1.92;;;4.60;99.90;;;;;;5112384;27;20039;-93
2023/01/19 09:57:19;;;;;;;11.60;1.65;;;4.50;99.90;;;;;;5112109;27;20037;-93
2023/01/19 09:59:49;;;;;;;10.82;1.60;;;4.60;99.90;;;;;;5113687;28;20080;-93
2023/01/19 10:02:41;;;;;;;4.47;0.98;;;4.40;99.90;;;;;;5111756;28;20121;-93
2023/01/19 10:05:25;;;;;;;17.77;2.50;;;4.60;99.90;;;;;;5112831;28;20675;-94
2023/01/19 10:08:12;;;;;;;11.25;1.50;;;4.60;99.90;;;;;;5112431;28;20031;-93
2023/01/19 10:10:41;;;;;;;9.32;2.30;;;4.70;99.90;;;;;;5113537;28;20042;-94
2023/01/19 10:13:40;;;;;;;10.15;2.25;;;4.60;99.90;;;;;;5112101;28;20035;-95
2023/01/19 10:16:30;;;;;;;9.85;2.72;;;4.70;99.90;;;;;;5129411;28;20680;-94
2023/01/19 10:19:26;;;;;;;11.60;1.50;;;4.90;99.90;;;;;;5130905;28;20039;-94
2023/01/19 10:21:54;;;;;;;12.35;1.92;;;5.30;99.90;;;;;;5111794;28;20120;-94
2023/01/19 10:24:24;;;;;;;8.23;1.58;;;5.10;99.90;;;;;;5101540;28;20047;-93
2023/01/19 10:26:52;;;;;;;11.80;2.03;;;5.50;99.90;;;;;;5109406;28;20043;-94
2023/01/19 10:29:38;;;;;;;9.73;1.58;;;5.30;99.90;;;;;;5092923;28;20049;-94
2023/01/19 10:32:21;;;;;;;13.65;1.52;;;5.50;99.90;;;;;;5090943;28;20500;-94
2023/01/19 10:34:48;;;;;;;11.50;2.15;;;5.60;99.90;;;;;;5113342;28;20064;-94
2023/01/19 10:37:32;;;;;;;10.70;1.70;;;5.80;99.90;;;;;;5113392;28;20114;-94
2023/01/19 10:40:09;;;;;;;6.22;1.23;;;6.20;99.90;;;;;;5097756;28;20073;-94
2023/01/19 10:42:37;;;;;;;9.43;1.70;;;6.10;99.90;;;;;;5110117;28;20055;-94
2023/01/19 10:45:14;;;;;;;7.45;1.52;;;6.30;99.90;;;;;;5125682;28;20043;-95
2023/01/19 10:47:41;;;;;;;8.88;1.58;;;6.50;99.90;;;;;;5113847;28;20050;-95
2023/01/19 10:50:39;;;;;;;8.75;1.45;;;6.30;99.90;;;;;;5129981;27;20118;-94
2023/01/19 10:53:16;;;;;;;8.50;1.95;;;6.50;99.90;;;;;;5034651;28;20060;-94
2023/01/19 10:55:42;;;;;;;9.85;2.00;;;6.70;99.90;;;;;;5017476;28;20098;-95
2023/01/19 10:58:28;;;;;;;11.07;1.67;;;6.60;99.90;;;;;;5035428;28;20083;-95
2023/01/19 11:00:53;;;;;;;8.80;1.52;;;6.70;99.90;;;;;;5019476;28;20037;-96
2023/01/19 11:03:23;;;;;;;12.23;1.70;;;6.60;99.90;;;;;;5035436;28;20056;-96
2023/01/19 11:05:49;;;;;;;9.68;2.00;;;6.70;99.90;;;;;;5019269;28;20103;-96
2023/01/19 11:08:29;;;;;;;8.23;1.10;;;7.00;99.90;;;;;;5014996;28;20130;-95
2023/01/19 11:11:02;;;;;;;14.45;2.22;;;6.90;99.90;;;;;;4999454;28;20045;-96
2023/01/19 11:13:28;;;;;;;10.38;1.95;;;6.90;99.90;;;;;;4998262;28;20041;-96
2023/01/19 11:15:57;;;;;;;9.35;1.33;;;7.10;99.90;;;;;;5015051;28;20049;-96
2023/01/19 11:18:31;;;;;;;11.18;1.52;;;7.00;99.90;;;;;;4998322;28;20965;-96
2023/01/19 11:21:06;;;;;;;9.35;1.60;;;7.10;99.90;;;;;;4998793;28;20423;-96
2023/01/19 11:23:41;;;;;;;12.38;1.60;;;7.10;99.90;;;;;;5015447;28;20514;-95
2023/01/19 11:26:14;;;;;;;8.88;1.33;;;7.20;99.90;;;;;;4995148;28;20033;-96
2023/01/19 11:28:46;;;;;;;10.40;1.52;;;7.30;99.90;;;;;;5077258;27;20086;-96
2023/01/19 11:31:14;;;;;;;7.00;1.17;;;7.30;99.90;;;;;;5146733;27;20818;-96
2023/01/19 11:33:41;;;;;;;6.82;1.35;;;7.40;99.90;;;;;;5094076;28;20035;-95
2023/01/19 11:36:18;;;;;;;8.55;1.25;;;7.30;99.90;;;;;;5095273;28;20408;-96
2023/01/19 11:38:49;;;;;;;9.38;1.60;;;7.60;99.70;;;;;;5128530;27;20561;-95
2023/01/19 11:41:20;;;;;;;11.80;1.52;;;7.40;98.60;;;;;;5096068;28;20028;-95
2023/01/19 11:43:50;;;;;;;7.07;1.98;;;7.60;98.70;;;;;;5095789;28;20035;-93
2023/01/19 11:46:17;;;;;;;8.07;1.10;;;7.60;99.90;;;;;;5111432;27;20062;-93
2023/01/19 11:49:06;;;;;;;7.75;1.23;;;7.50;99.90;;;;;;5116106;27;20039;-94
2023/01/19 11:52:01;;;;;;;8.38;1.40;;;7.70;98.70;;;;;;5115116;27;20114;-94
2023/01/19 11:54:54;;;;;;;6.53;1.20;;;7.70;96.80;;;;;;5115311;27;20131;-94
2023/01/19 11:57:20;;;;;;;5.15;0.82;;;7.80;96.00;;;;;;5114850;27;20039;-94
2023/01/19 11:59:46;;;;;;;8.05;0.93;;;7.90;94.50;;;;;;5116302;27;20040;-93
2023/01/19 12:02:45;;;;;;;7.32;1.02;;;7.80;92.70;;;;;;5132104;27;20393;-94
2023/01/19 12:05:17;;;;;;;8.90;1.75;;;7.90;92.70;;;;;;5110407;27;20484;-95
2023/01/19 12:07:44;;;;;;;20.35;3.00;;;7.60;93.20;;;;;;5132327;27;20080;-94
2023/01/19 12:10:24;;;;;;;5.45;1.17;;;8.10;93.10;;;;;;5114237;27;20074;-94
2023/01/19 12:12:51;;;;;;;10.98;1.67;;;8.50;93.90;;;;;;5114360;27;20047;-94
2023/01/19 12:15:41;;;;;;;8.55;1.00;;;8.40;92.10;;;;;;5113915;27;20090;-93
2023/01/19 12:18:14;;;;;;;7.57;0.90;;;8.60;91.70;;;;;;5111182;27;20567;-93
2023/01/19 12:20:48;;;;;;;8.68;1.17;;;8.80;90.20;;;;;;5093487;28;20039;-94
2023/01/19 12:23:39;;;;;;;8.15;1.50;;;9.10;88.90;;;;;;5094724;28;20081;-94
2023/01/19 12:26:42;;;;;;;4.85;0.93;;;9.30;88.50;;;;;;5095465;28;20281;-94
2023/01/19 12:29:14;;;;;;;8.02;1.70;;;9.70;81.10;;;;;;5093242;28;20035;-93
2023/01/19 12:31:41;;;;;;;2.85;0.77;;;10.00;79.70;;;;;;5094386;28;20043;-92
2023/01/19 12:34:23;;;;;;;5.63;1.00;;;10.40;77.60;;;;;;5111753;27;20396;-93
2023/01/19 12:36:50;;;;;;;5.35;0.95;;;10.50;73.90;;;;;;5093329;28;20051;-94
2023/01/19 12:39:20;;;;;;;6.47;1.15;;;10.30;75.50;;;;;;5109655;27;20047;-94
2023/01/19 12:41:47;;;;;;;9.30;1.45;;;10.40;75.30;;;;;;5094980;28;20045;-94
2023/01/19 12:44:15;;;;;;;7.53;1.25;;;10.70;75.70;;;;;;5095047;28;20032;-94
2023/01/19 12:47:21;;;;;;;5.78;1.58;;;10.50;75.80;;;;;;5111765;27;20042;-94
2023/01/19 12:49:50;;;;;;;5.75;0.93;;;9.20;75.20;;;;;;5110149;28;20038;-94
2023/01/19 12:52:39;;;;;;;11.23;2.22;;;8.40;78.90;;;;;;5096368;28;20027;-94
2023/01/19 12:55:11;;;;;;;5.47;1.10;;;8.50;83.40;;;;;;5094122;28;20058;-94
2023/01/19 12:57:54;;;;;;;6.43;1.20;;;10.00;91.80;;;;;;5123593;27;20171;-94
2023/01/19 13:00:23;;;;;;;8.65;1.58;;;11.80;90.40;;;;;;5115035;27;20512;-94
2023/01/19 13:02:58;;;;;;;7.93;1.35;;;13.30;84.10;;;;;;5131463;27;20031;-92
2023/01/19 13:05:43;;;;;;;7.95;1.90;;;13.80;79.10;;;;;;5115409;27;20046;-91
2023/01/19 13:08:10;;;;;;;9.02;1.42;;;14.60;75.40;;;;;;5131185;27;20046;-92
2023/01/19 13:10:54;;;;;;;6.32;1.60;;;15.80;75.00;;;;;;5126297;27;20095;-91
2023/01/19 13:13:43;;;;;;;8.55;1.70;;;17.10;70.40;;;;;;5109931;28;20524;-92